sensor_id;sensor_type;location;lat;lon;timestamp;P1;durP1;ratioP1;P2;durP2;ratioP2
24147;SDS011;12309;51.450;-2.624;2023-05-29T00:01:43;14.48;;;4.68;;
24147;SDS011;12309;51.450;-2.624;2023-05-29T00:04:09;16.88;;;4.32;;
24147;SDS011;12309;51.450;-2.624;2023-05-29T00:06:37;15.88;;;4.65;;
24147;SDS011;12309;51.450;-2.624;2023-05-29T00:09:02;21.98;;;4.63;;
24147;SDS011;12309;51.450;-2.624;2023-05-29T00:11:29;16.65;;;4.28;;
24147;SDS011;12309;51.450;-2.624;2023-05-29T00:13:55;18.20;;;4.20;;
24147;SDS011;12309;51.450;-2.624;2023-05-29T00:16:21;21.20;;;4.38;;
24147;SDS011;12309;51.450;-2.624;2023-05-29T00:18:48;15.93;;;4.18;;
24147;SDS011;12309;51.450;-2.624;2023-05-29T00:21:14;11.50;;;4.63;;
24147;SDS011;12309;51.450;-2.624;2023-05-29T00:23:40;16.65;;;4.65;;
24147;SDS011;12309;51.450;-2.624;2023-05-29T00:26:06;22.60;;;5.30;;
24147;SDS011;12309;51.450;-2.624;2023-05-29T00:28:32;17.15;;;5.45;;
24147;SDS011;12309;51.450;-2.624;2023-05-29T00:30:59;17.48;;;5.60;;
24147;SDS011;12309;51.450;-2.624;2023-05-29T00:33:25;19.95;;;5.57;;
24147;SDS011;12309;51.450;-2.624;2023-05-29T00:35:51;18.42;;;4.93;;
24147;SDS011;12309;51.450;-2.624;2023-05-29T00:38:16;18.08;;;4.45;;
24147;SDS011;12309;51.450;-2.624;2023-05-29T00:40:42;20.80;;;5.05;;
24147;SDS011;12309;51.450;-2.624;2023-05-29T00:43:08;16.40;;;4.50;;
24147;SDS011;12309;51.450;-2.624;2023-05-29T00:45:33;16.35;;;3.80;;
24147;SDS011;12309;51.450;-2.624;2023-05-29T00:48:01;12.65;;;3.90;;
24147;SDS011;12309;51.450;-2.624;2023-05-29T00:50:28;18.02;;;4.63;;
24147;SDS011;12309;51.450;-2.624;2023-05-29T00:52:54;21.55;;;4.47;;
24147;SDS011;12309;51.450;-2.624;2023-05-29T00:55:20;14.88;;;3.67;;
24147;SDS011;12309;51.450;-2.624;2023-05-29T00:57:46;19.67;;;4.32;;
24147;SDS011;12309;51.450;-2.624;2023-05-29T01:00:14;19.67;;;4.22;;
24147;SDS011;12309;51.450;-2.624;2023-05-29T01:02:41;20.20;;;3.83;;
24147;SDS011;12309;51.450;-2.624;2023-05-29T01:05:13;19.80;;;3.67;;
24147;SDS011;12309;51.450;-2.624;2023-05-29T01:07:40;19.55;;;3.65;;
24147;SDS011;12309;51.450;-2.624;2023-05-29T01:10:09;18.30;;;3.78;;
24147;SDS011;12309;51.450;-2.624;2023-05-29T01:12:40;17.63;;;3.40;;
24147;SDS011;12309;51.450;-2.624;2023-05-29T01:20:49;18.73;;;3.40;;
24147;SDS011;12309;51.450;-2.624;2023-05-29T01:29:22;17.00;;;3.58;;
24147;SDS011;12309;51.450;-2.624;2023-05-29T01:31:50;15.27;;;3.17;;
24147;SDS011;12309;51.450;-2.624;2023-05-29T01:34:16;12.27;;;2.83;;
24147;SDS011;12309;51.450;-2.624;2023-05-29T01:36:42;19.70;;;3.20;;
24147;SDS011;12309;51.450;-2.624;2023-05-29T01:39:07;16.40;;;3.05;;
24147;SDS011;12309;51.450;-2.624;2023-05-29T01:41:34;13.27;;;3.40;;
24147;SDS011;12309;51.450;-2.624;2023-05-29T01:44:02;16.38;;;3.70;;
24147;SDS011;12309;51.450;-2.624;2023-05-29T01:46:33;15.43;;;2.80;;
24147;SDS011;12309;51.450;-2.624;2023-05-29T01:49:00;19.17;;;3.45;;
24147;SDS011;12309;51.450;-2.624;2023-05-29T01:51:26;13.13;;;2.83;;
24147;SDS011;12309;51.450;-2.624;2023-05-29T01:53:52;15.67;;;3.17;;
24147;SDS011;12309;51.450;-2.624;2023-05-29T01:56:18;15.70;;;2.90;;
24147;SDS011;12309;51.450;-2.624;2023-05-29T01:58:44;21.98;;;3.75;;
24147;SDS011;12309;51.450;-2.624;2023-05-29T02:01:10;12.03;;;3.10;;
24147;SDS011;12309;51.450;-2.624;2023-05-29T02:03:36;16.97;;;2.80;;
24147;SDS011;12309;51.450;-2.624;2023-05-29T02:06:02;17.23;;;3.42;;
24147;SDS011;12309;51.450;-2.624;2023-05-29T02:08:28;12.27;;;3.07;;
24147;SDS011;12309;51.450;-2.624;2023-05-29T02:10:53;19.53;;;3.30;;
24147;SDS011;12309;51.450;-2.624;2023-05-29T02:13:19;18.33;;;3.40;;
24147;SDS011;12309;51.450;-2.624;2023-05-29T02:15:45;15.47;;;3.17;;
24147;SDS011;12309;51.450;-2.624;2023-05-29T02:18:13;17.50;;;3.33;;
24147;SDS011;12309;51.450;-2.624;2023-05-29T02:20:39;19.13;;;2.93;;
24147;SDS011;12309;51.450;-2.624;2023-05-29T02:23:06;17.87;;;2.87;;
24147;SDS011;12309;51.450;-2.624;2023-05-29T02:25:33;10.77;;;3.20;;
24147;SDS011;12309;51.450;-2.624;2023-05-29T02:27:59;23.40;;;3.80;;
24147;SDS011;12309;51.450;-2.624;2023-05-29T02:30:25;13.57;;;3.17;;
24147;SDS011;12309;51.450;-2.624;2023-05-29T02:32:50;17.77;;;3.30;;
24147;SDS011;12309;51.450;-2.624;2023-05-29T02:35:16;15.37;;;3.00;;
24147;SDS011;12309;51.450;-2.624;2023-05-29T02:37:45;20.30;;;3.47;;
24147;SDS011;12309;51.450;-2.624;2023-05-29T02:40:11;16.80;;;3.07;;
24147;SDS011;12309;51.450;-2.624;2023-05-29T02:42:37;17.07;;;3.13;;
24147;SDS011;12309;51.450;-2.624;2023-05-29T02:45:02;12.87;;;2.90;;
24147;SDS011;12309;51.450;-2.624;2023-05-29T02:47:29;15.73;;;3.00;;
24147;SDS011;12309;51.450;-2.624;2023-05-29T02:49:54;17.77;;;3.20;;
24147;SDS011;12309;51.450;-2.624;2023-05-29T02:52:20;16.47;;;3.07;;
24147;SDS011;12309;51.450;-2.624;2023-05-29T02:54:45;19.53;;;3.30;;
24147;SDS011;12309;51.450;-2.624;2023-05-29T02:57:11;15.93;;;3.13;;
24147;SDS011;12309;51.450;-2.624;2023-05-29T02:59:37;13.83;;;2.90;;
24147;SDS011;12309;51.450;-2.624;2023-05-29T03:02:03;17.20;;;3.23;;
24147;SDS011;12309;51.450;-2.624;2023-05-29T03:04:28;13.77;;;2.90;;
24147;SDS011;12309;51.450;-2.624;2023-05-29T03:06:54;15.97;;;3.10;;
24147;SDS011;12309;51.450;-2.624;2023-05-29T03:09:20;13.30;;;2.50;;
24147;SDS011;12309;51.450;-2.624;2023-05-29T03:11:46;15.57;;;3.23;;
24147;SDS011;12309;51.450;-2.624;2023-05-29T03:14:14;14.77;;;2.63;;
24147;SDS011;12309;51.450;-2.624;2023-05-29T03:16:40;18.13;;;2.90;;
24147;SDS011;12309;51.450;-2.624;2023-05-29T03:19:06;15.63;;;2.67;;
24147;SDS011;12309;51.450;-2.624;2023-05-29T03:21:32;16.20;;;2.77;;
24147;SDS011;12309;51.450;-2.624;2023-05-29T03:23:58;17.13;;;2.87;;
24147;SDS011;12309;51.450;-2.624;2023-05-29T03:26:24;13.93;;;2.87;;
24147;SDS011;12309;51.450;-2.624;2023-05-29T03:28:50;17.57;;;3.23;;
24147;SDS011;12309;51.450;-2.624;2023-05-29T03:31:16;10.27;;;2.40;;
24147;SDS011;12309;51.450;-2.624;2023-05-29T03:33:42;15.60;;;2.70;;
24147;SDS011;12309;51.450;-2.624;2023-05-29T03:36:07;14.10;;;2.97;;
24147;SDS011;12309;51.450;-2.624;2023-05-29T03:38:33;15.73;;;2.87;;
24147;SDS011;12309;51.450;-2.624;2023-05-29T03:40:59;16.07;;;2.70;;
24147;SDS011;12309;51.450;-2.624;2023-05-29T03:43:25;16.20;;;3.13;;
24147;SDS011;12309;51.450;-2.624;2023-05-29T03:45:51;14.57;;;2.90;;
24147;SDS011;12309;51.450;-2.624;2023-05-29T03:48:16;17.77;;;2.80;;
24147;SDS011;12309;51.450;-2.624;2023-05-29T03:50:42;10.13;;;2.60;;
24147;SDS011;12309;51.450;-2.624;2023-05-29T03:53:08;12.27;;;2.77;;
24147;SDS011;12309;51.450;-2.624;2023-05-29T03:55:33;15.60;;;2.70;;
24147;SDS011;12309;51.450;-2.624;2023-05-29T03:57:59;16.97;;;3.00;;
24147;SDS011;12309;51.450;-2.624;2023-05-29T04:00:25;9.57;;;2.80;;
24147;SDS011;12309;51.450;-2.624;2023-05-29T04:02:50;12.33;;;2.37;;
24147;SDS011;12309;51.450;-2.624;2023-05-29T04:05:16;11.33;;;2.40;;
24147;SDS011;12309;51.450;-2.624;2023-05-29T04:07:42;13.83;;;2.60;;
24147;SDS011;12309;51.450;-2.624;2023-05-29T04:10:08;15.80;;;2.90;;
24147;SDS011;12309;51.450;-2.624;2023-05-29T04:12:34;13.83;;;2.57;;
24147;SDS011;12309;51.450;-2.624;2023-05-29T04:15:00;13.73;;;2.90;;
24147;SDS011;12309;51.450;-2.624;2023-05-29T04:17:25;12.13;;;2.47;;
24147;SDS011;12309;51.450;-2.624;2023-05-29T04:19:51;16.50;;;2.67;;
24147;SDS011;12309;51.450;-2.624;2023-05-29T04:22:17;13.50;;;2.63;;
24147;SDS011;12309;51.450;-2.624;2023-05-29T04:24:44;16.53;;;2.83;;
24147;SDS011;12309;51.450;-2.624;2023-05-29T04:27:10;13.73;;;2.67;;
24147;SDS011;12309;51.450;-2.624;2023-05-29T04:29:38;16.43;;;2.63;;
24147;SDS011;12309;51.450;-2.624;2023-05-29T04:32:05;15.53;;;2.53;;
24147;SDS011;12309;51.450;-2.624;2023-05-29T04:34:33;14.13;;;2.43;;
24147;SDS011;12309;51.450;-2.624;2023-05-29T04:36:59;14.80;;;2.70;;
24147;SDS011;12309;51.450;-2.624;2023-05-29T04:39:25;20.13;;;3.30;;
24147;SDS011;12309;51.450;-2.624;2023-05-29T04:41:51;9.33;;;2.67;;
24147;SDS011;12309;51.450;-2.624;2023-05-29T04:44:17;18.53;;;2.87;;
24147;SDS011;12309;51.450;-2.624;2023-05-29T04:46:43;16.17;;;3.40;;
24147;SDS011;12309;51.450;-2.624;2023-05-29T04:49:09;12.63;;;3.23;;
24147;SDS011;12309;51.450;-2.624;2023-05-29T04:51:36;15.53;;;2.90;;
24147;SDS011;12309;51.450;-2.624;2023-05-29T04:54:05;16.90;;;3.00;;
24147;SDS011;12309;51.450;-2.624;2023-05-29T04:56:31;22.27;;;2.80;;
24147;SDS011;12309;51.450;-2.624;2023-05-29T04:58:57;20.40;;;3.27;;
24147;SDS011;12309;51.450;-2.624;2023-05-29T05:01:26;14.63;;;3.27;;
24147;SDS011;12309;51.450;-2.624;2023-05-29T05:03:52;19.47;;;2.80;;
24147;SDS011;12309;51.450;-2.624;2023-05-29T05:06:21;11.37;;;2.90;;
24147;SDS011;12309;51.450;-2.624;2023-05-29T05:08:47;24.17;;;4.03;;
24147;SDS011;12309;51.450;-2.624;2023-05-29T05:11:12;16.90;;;4.00;;
24147;SDS011;12309;51.450;-2.624;2023-05-29T05:13:39;15.47;;;3.03;;
24147;SDS011;12309;51.450;-2.624;2023-05-29T05:16:05;17.97;;;2.97;;
24147;SDS011;12309;51.450;-2.624;2023-05-29T05:18:31;15.90;;;3.13;;
24147;SDS011;12309;51.450;-2.624;2023-05-29T05:20:57;16.37;;;3.00;;
24147;SDS011;12309;51.450;-2.624;2023-05-29T05:23:22;19.90;;;3.10;;
24147;SDS011;12309;51.450;-2.624;2023-05-29T05:25:48;14.50;;;3.00;;
24147;SDS011;12309;51.450;-2.624;2023-05-29T05:28:14;12.50;;;2.70;;
24147;SDS011;12309;51.450;-2.624;2023-05-29T05:30:39;15.53;;;3.20;;
24147;SDS011;12309;51.450;-2.624;2023-05-29T05:33:05;16.63;;;3.10;;
24147;SDS011;12309;51.450;-2.624;2023-05-29T05:35:31;17.90;;;2.83;;
24147;SDS011;12309;51.450;-2.624;2023-05-29T05:37:56;17.27;;;3.27;;
24147;SDS011;12309;51.450;-2.624;2023-05-29T05:40:25;15.83;;;2.97;;
24147;SDS011;12309;51.450;-2.624;2023-05-29T05:42:51;13.13;;;3.03;;
24147;SDS011;12309;51.450;-2.624;2023-05-29T05:45:16;19.60;;;3.30;;
24147;SDS011;12309;51.450;-2.624;2023-05-29T05:47:42;18.27;;;2.70;;
24147;SDS011;12309;51.450;-2.624;2023-05-29T05:50:08;15.73;;;2.93;;
24147;SDS011;12309;51.450;-2.624;2023-05-29T05:52:34;14.57;;;3.43;;
24147;SDS011;12309;51.450;-2.624;2023-05-29T05:55:00;19.20;;;3.23;;
24147;SDS011;12309;51.450;-2.624;2023-05-29T05:57:26;17.57;;;2.93;;
24147;SDS011;12309;51.450;-2.624;2023-05-29T05:59:52;17.80;;;3.30;;
24147;SDS011;12309;51.450;-2.624;2023-05-29T06:02:18;20.30;;;3.17;;
24147;SDS011;12309;51.450;-2.624;2023-05-29T06:04:43;14.67;;;3.20;;
24147;SDS011;12309;51.450;-2.624;2023-05-29T06:07:09;24.37;;;3.60;;
24147;SDS011;12309;51.450;-2.624;2023-05-29T06:09:35;15.37;;;3.20;;
24147;SDS011;12309;51.450;-2.624;2023-05-29T06:12:02;16.90;;;3.43;;
24147;SDS011;12309;51.450;-2.624;2023-05-29T06:14:27;17.10;;;3.50;;
24147;SDS011;12309;51.450;-2.624;2023-05-29T06:16:53;13.53;;;3.07;;
24147;SDS011;12309;51.450;-2.624;2023-05-29T06:19:19;20.23;;;3.20;;
24147;SDS011;12309;51.450;-2.624;2023-05-29T06:21:45;13.60;;;2.70;;
24147;SDS011;12309;51.450;-2.624;2023-05-29T06:24:11;17.13;;;2.57;;
24147;SDS011;12309;51.450;-2.624;2023-05-29T06:26:38;19.10;;;3.20;;
24147;SDS011;12309;51.450;-2.624;2023-05-29T06:29:04;31.00;;;3.47;;
24147;SDS011;12309;51.450;-2.624;2023-05-29T06:31:31;13.67;;;2.47;;
24147;SDS011;12309;51.450;-2.624;2023-05-29T06:33:58;11.47;;;2.47;;
24147;SDS011;12309;51.450;-2.624;2023-05-29T06:36:23;15.00;;;2.73;;
24147;SDS011;12309;51.450;-2.624;2023-05-29T06:38:49;12.70;;;2.17;;
24147;SDS011;12309;51.450;-2.624;2023-05-29T06:41:15;13.40;;;2.97;;
24147;SDS011;12309;51.450;-2.624;2023-05-29T06:43:41;12.87;;;2.57;;
24147;SDS011;12309;51.450;-2.624;2023-05-29T06:46:07;10.27;;;2.57;;
24147;SDS011;12309;51.450;-2.624;2023-05-29T06:48:33;11.82;;;2.45;;
24147;SDS011;12309;51.450;-2.624;2023-05-29T06:50:59;11.47;;;2.83;;
24147;SDS011;12309;51.450;-2.624;2023-05-29T06:53:25;13.20;;;2.80;;
24147;SDS011;12309;51.450;-2.624;2023-05-29T06:55:52;15.87;;;3.03;;
24147;SDS011;12309;51.450;-2.624;2023-05-29T06:58:18;9.63;;;2.07;;
24147;SDS011;12309;51.450;-2.624;2023-05-29T07:00:43;14.90;;;3.00;;
24147;SDS011;12309;51.450;-2.624;2023-05-29T07:03:09;12.67;;;2.77;;
24147;SDS011;12309;51.450;-2.624;2023-05-29T07:05:35;15.70;;;3.03;;
24147;SDS011;12309;51.450;-2.624;2023-05-29T07:08:01;12.00;;;2.30;;
24147;SDS011;12309;51.450;-2.624;2023-05-29T07:10:26;14.10;;;2.53;;
24147;SDS011;12309;51.450;-2.624;2023-05-29T07:12:52;15.37;;;2.67;;
24147;SDS011;12309;51.450;-2.624;2023-05-29T07:15:18;10.30;;;1.97;;
24147;SDS011;12309;51.450;-2.624;2023-05-29T07:17:43;11.27;;;2.35;;
24147;SDS011;12309;51.450;-2.624;2023-05-29T07:20:09;10.33;;;2.50;;
24147;SDS011;12309;51.450;-2.624;2023-05-29T07:22:35;8.55;;;2.05;;
24147;SDS011;12309;51.450;-2.624;2023-05-29T07:25:01;10.38;;;2.08;;
24147;SDS011;12309;51.450;-2.624;2023-05-29T07:27:28;14.33;;;2.17;;
24147;SDS011;12309;51.450;-2.624;2023-05-29T07:29:54;11.40;;;2.23;;
24147;SDS011;12309;51.450;-2.624;2023-05-29T07:32:20;15.87;;;2.50;;
24147;SDS011;12309;51.450;-2.624;2023-05-29T07:34:46;11.85;;;2.40;;
24147;SDS011;12309;51.450;-2.624;2023-05-29T07:37:14;7.20;;;2.00;;
24147;SDS011;12309;51.450;-2.624;2023-05-29T07:39:40;13.85;;;2.13;;
24147;SDS011;12309;51.450;-2.624;2023-05-29T07:42:07;15.48;;;2.67;;
24147;SDS011;12309;51.450;-2.624;2023-05-29T07:44:32;9.70;;;2.60;;
24147;SDS011;12309;51.450;-2.624;2023-05-29T07:46:58;8.43;;;2.15;;
24147;SDS011;12309;51.450;-2.624;2023-05-29T07:49:24;11.63;;;2.03;;
24147;SDS011;12309;51.450;-2.624;2023-05-29T07:51:49;10.68;;;2.30;;
24147;SDS011;12309;51.450;-2.624;2023-05-29T07:54:15;8.68;;;2.08;;
24147;SDS011;12309;51.450;-2.624;2023-05-29T07:56:43;11.32;;;2.40;;
24147;SDS011;12309;51.450;-2.624;2023-05-29T07:59:09;11.05;;;2.08;;
24147;SDS011;12309;51.450;-2.624;2023-05-29T08:01:35;9.88;;;2.25;;
24147;SDS011;12309;51.450;-2.624;2023-05-29T08:04:02;6.55;;;2.28;;
24147;SDS011;12309;51.450;-2.624;2023-05-29T08:06:28;6.95;;;1.95;;
24147;SDS011;12309;51.450;-2.624;2023-05-29T08:08:53;11.15;;;2.78;;
24147;SDS011;12309;51.450;-2.624;2023-05-29T08:11:19;8.35;;;2.38;;
24147;SDS011;12309;51.450;-2.624;2023-05-29T08:13:46;10.00;;;2.17;;
24147;SDS011;12309;51.450;-2.624;2023-05-29T08:16:12;9.05;;;2.72;;
24147;SDS011;12309;51.450;-2.624;2023-05-29T08:18:40;10.82;;;2.60;;
24147;SDS011;12309;51.450;-2.624;2023-05-29T08:21:06;9.93;;;2.40;;
24147;SDS011;12309;51.450;-2.624;2023-05-29T08:23:32;11.32;;;2.83;;
24147;SDS011;12309;51.450;-2.624;2023-05-29T08:25:57;9.60;;;2.55;;
24147;SDS011;12309;51.450;-2.624;2023-05-29T08:28:23;8.93;;;2.03;;
24147;SDS011;12309;51.450;-2.624;2023-05-29T08:30:52;6.13;;;1.70;;
24147;SDS011;12309;51.450;-2.624;2023-05-29T08:33:17;8.48;;;2.55;;
24147;SDS011;12309;51.450;-2.624;2023-05-29T08:35:43;10.45;;;2.28;;
24147;SDS011;12309;51.450;-2.624;2023-05-29T08:38:08;8.68;;;2.30;;
24147;SDS011;12309;51.450;-2.624;2023-05-29T08:40:34;10.10;;;2.58;;
24147;SDS011;12309;51.450;-2.624;2023-05-29T08:43:02;8.65;;;2.15;;
24147;SDS011;12309;51.450;-2.624;2023-05-29T08:45:38;8.50;;;2.25;;
24147;SDS011;12309;51.450;-2.624;2023-05-29T08:48:08;8.40;;;2.17;;
24147;SDS011;12309;51.450;-2.624;2023-05-29T08:50:35;6.38;;;2.20;;
24147;SDS011;12309;51.450;-2.624;2023-05-29T08:53:07;8.77;;;2.33;;
24147;SDS011;12309;51.450;-2.624;2023-05-29T08:55:33;8.07;;;2.35;;
24147;SDS011;12309;51.450;-2.624;2023-05-29T08:57:58;9.63;;;2.30;;
24147;SDS011;12309;51.450;-2.624;2023-05-29T09:00:24;11.55;;;2.28;;
24147;SDS011;12309;51.450;-2.624;2023-05-29T09:02:54;11.13;;;2.20;;
24147;SDS011;12309;51.450;-2.624;2023-05-29T09:05:20;7.43;;;1.98;;
24147;SDS011;12309;51.450;-2.624;2023-05-29T09:07:48;6.93;;;2.45;;
24147;SDS011;12309;51.450;-2.624;2023-05-29T09:10:14;9.07;;;2.45;;
24147;SDS011;12309;51.450;-2.624;2023-05-29T09:12:40;8.65;;;2.10;;
24147;SDS011;12309;51.450;-2.624;2023-05-29T09:15:27;8.32;;;2.45;;
24147;SDS011;12309;51.450;-2.624;2023-05-29T09:17:53;7.57;;;1.73;;
24147;SDS011;12309;51.450;-2.624;2023-05-29T09:20:20;7.82;;;2.03;;
24147;SDS011;12309;51.450;-2.624;2023-05-29T09:22:59;8.02;;;2.00;;
24147;SDS011;12309;51.450;-2.624;2023-05-29T09:25:27;6.43;;;2.28;;
24147;SDS011;12309;51.450;-2.624;2023-05-29T09:27:58;6.43;;;1.92;;
24147;SDS011;12309;51.450;-2.624;2023-05-29T09:30:31;5.22;;;1.73;;
24147;SDS011;12309;51.450;-2.624;2023-05-29T09:32:58;11.75;;;2.55;;
24147;SDS011;12309;51.450;-2.624;2023-05-29T09:35:25;7.07;;;2.13;;
24147;SDS011;12309;51.450;-2.624;2023-05-29T09:37:51;10.57;;;2.20;;
24147;SDS011;12309;51.450;-2.624;2023-05-29T09:40:17;6.85;;;1.80;;
24147;SDS011;12309;51.450;-2.624;2023-05-29T09:42:43;9.52;;;2.65;;
24147;SDS011;12309;51.450;-2.624;2023-05-29T09:45:09;7.88;;;2.20;;
24147;SDS011;12309;51.450;-2.624;2023-05-29T09:47:34;6.85;;;1.65;;
24147;SDS011;12309;51.450;-2.624;2023-05-29T09:50:00;6.55;;;2.13;;
24147;SDS011;12309;51.450;-2.624;2023-05-29T09:52:26;7.10;;;2.05;;
24147;SDS011;12309;51.450;-2.624;2023-05-29T09:54:55;7.10;;;2.00;;
24147;SDS011;12309;51.450;-2.624;2023-05-29T09:57:21;11.77;;;2.60;;
24147;SDS011;12309;51.450;-2.624;2023-05-29T09:59:49;7.78;;;2.20;;
24147;SDS011;12309;51.450;-2.624;2023-05-29T10:02:17;9.68;;;2.28;;
24147;SDS011;12309;51.450;-2.624;2023-05-29T10:04:43;8.85;;;2.30;;
24147;SDS011;12309;51.450;-2.624;2023-05-29T10:07:20;8.20;;;2.20;;
24147;SDS011;12309;51.450;-2.624;2023-05-29T10:09:55;6.63;;;2.10;;
24147;SDS011;12309;51.450;-2.624;2023-05-29T10:12:28;5.93;;;2.40;;
24147;SDS011;12309;51.450;-2.624;2023-05-29T10:14:57;7.85;;;2.42;;
24147;SDS011;12309;51.450;-2.624;2023-05-29T10:17:25;5.90;;;2.10;;
24147;SDS011;12309;51.450;-2.624;2023-05-29T10:19:53;13.23;;;2.20;;
24147;SDS011;12309;51.450;-2.624;2023-05-29T10:22:23;9.80;;;2.20;;
24147;SDS011;12309;51.450;-2.624;2023-05-29T10:24:51;8.63;;;1.98;;
24147;SDS011;12309;51.450;-2.624;2023-05-29T10:27:18;8.20;;;1.88;;
24147;SDS011;12309;51.450;-2.624;2023-05-29T10:29:48;7.18;;;2.00;;
24147;SDS011;12309;51.450;-2.624;2023-05-29T10:37:52;7.82;;;2.38;;
24147;SDS011;12309;51.450;-2.624;2023-05-29T10:40:26;11.90;;;2.28;;
24147;SDS011;12309;51.450;-2.624;2023-05-29T10:42:52;7.15;;;2.03;;
24147;SDS011;12309;51.450;-2.624;2023-05-29T10:50:38;5.68;;;1.80;;
24147;SDS011;12309;51.450;-2.624;2023-05-29T10:53:10;9.63;;;1.83;;
24147;SDS011;12309;51.450;-2.624;2023-05-29T10:55:40;12.90;;;2.08;;
24147;SDS011;12309;51.450;-2.624;2023-05-29T10:58:06;9.80;;;1.98;;
24147;SDS011;12309;51.450;-2.624;2023-05-29T11:00:45;6.63;;;1.92;;
24147;SDS011;12309;51.450;-2.624;2023-05-29T11:03:30;8.70;;;2.05;;
24147;SDS011;12309;51.450;-2.624;2023-05-29T11:05:57;9.35;;;2.15;;
24147;SDS011;12309;51.450;-2.624;2023-05-29T11:08:41;8.15;;;2.20;;
24147;SDS011;12309;51.450;-2.624;2023-05-29T11:11:11;8.30;;;2.00;;
24147;SDS011;12309;51.450;-2.624;2023-05-29T11:13:37;6.28;;;1.77;;
24147;SDS011;12309;51.450;-2.624;2023-05-29T11:16:51;7.10;;;1.85;;
24147;SDS011;12309;51.450;-2.624;2023-05-29T11:18:54;5.97;;;1.90;;
24147;SDS011;12309;51.450;-2.624;2023-05-29T11:23:58;6.25;;;1.98;;
24147;SDS011;12309;51.450;-2.624;2023-05-29T11:26:28;7.15;;;2.03;;
24147;SDS011;12309;51.450;-2.624;2023-05-29T11:28:57;8.20;;;2.05;;
24147;SDS011;12309;51.450;-2.624;2023-05-29T11:31:23;5.35;;;2.08;;
24147;SDS011;12309;51.450;-2.624;2023-05-29T11:33:51;8.20;;;1.95;;
24147;SDS011;12309;51.450;-2.624;2023-05-29T11:36:21;7.53;;;2.10;;
24147;SDS011;12309;51.450;-2.624;2023-05-29T11:38:47;7.55;;;2.03;;
24147;SDS011;12309;51.450;-2.624;2023-05-29T11:41:13;5.70;;;1.88;;
24147;SDS011;12309;51.450;-2.624;2023-05-29T11:43:41;4.95;;;2.05;;
24147;SDS011;12309;51.450;-2.624;2023-05-29T11:46:19;7.75;;;2.20;;
24147;SDS011;12309;51.450;-2.624;2023-05-29T11:48:46;8.30;;;2.08;;
24147;SDS011;12309;51.450;-2.624;2023-05-29T11:51:12;8.88;;;2.45;;
24147;SDS011;12309;51.450;-2.624;2023-05-29T11:53:42;11.23;;;1.85;;
24147;SDS011;12309;51.450;-2.624;2023-05-29T11:56:09;5.35;;;1.55;;
24147;SDS011;12309;51.450;-2.624;2023-05-29T11:58:36;11.63;;;1.95;;
24147;SDS011;12309;51.450;-2.624;2023-05-29T12:01:02;10.55;;;2.10;;
24147;SDS011;12309;51.450;-2.624;2023-05-29T12:03:28;5.30;;;1.83;;
24147;SDS011;12309;51.450;-2.624;2023-05-29T12:05:54;7.32;;;1.85;;
24147;SDS011;12309;51.450;-2.624;2023-05-29T12:08:24;8.32;;;1.90;;
24147;SDS011;12309;51.450;-2.624;2023-05-29T12:10:51;12.57;;;1.77;;
24147;SDS011;12309;51.450;-2.624;2023-05-29T12:13:21;6.68;;;1.80;;
24147;SDS011;12309;51.450;-2.624;2023-05-29T12:15:47;7.38;;;2.08;;
24147;SDS011;12309;51.450;-2.624;2023-05-29T12:18:14;7.65;;;1.80;;
24147;SDS011;12309;51.450;-2.624;2023-05-29T12:20:40;8.50;;;2.05;;
24147;SDS011;12309;51.450;-2.624;2023-05-29T12:23:06;9.43;;;2.00;;
24147;SDS011;12309;51.450;-2.624;2023-05-29T12:25:33;4.75;;;1.70;;
24147;SDS011;12309;51.450;-2.624;2023-05-29T12:28:03;6.90;;;2.00;;
24147;SDS011;12309;51.450;-2.624;2023-05-29T12:30:29;5.05;;;1.98;;
24147;SDS011;12309;51.450;-2.624;2023-05-29T12:32:55;6.90;;;1.70;;
24147;SDS011;12309;51.450;-2.624;2023-05-29T12:35:23;6.60;;;2.40;;
24147;SDS011;12309;51.450;-2.624;2023-05-29T12:37:57;7.68;;;2.08;;
24147;SDS011;12309;51.450;-2.624;2023-05-29T12:40:27;7.03;;;1.90;;
24147;SDS011;12309;51.450;-2.624;2023-05-29T12:42:54;6.60;;;2.05;;
24147;SDS011;12309;51.450;-2.624;2023-05-29T12:45:21;6.53;;;2.25;;
24147;SDS011;12309;51.450;-2.624;2023-05-29T12:47:55;7.32;;;2.35;;
24147;SDS011;12309;51.450;-2.624;2023-05-29T12:53:16;7.72;;;2.20;;
24147;SDS011;12309;51.450;-2.624;2023-05-29T12:55:42;7.22;;;1.98;;
24147;SDS011;12309;51.450;-2.624;2023-05-29T12:58:09;8.70;;;1.92;;
24147;SDS011;12309;51.450;-2.624;2023-05-29T13:00:38;6.82;;;2.10;;
24147;SDS011;12309;51.450;-2.624;2023-05-29T13:03:06;8.57;;;2.30;;
24147;SDS011;12309;51.450;-2.624;2023-05-29T13:05:32;8.52;;;2.65;;
24147;SDS011;12309;51.450;-2.624;2023-05-29T13:07:58;6.07;;;3.03;;
24147;SDS011;12309;51.450;-2.624;2023-05-29T13:10:24;9.07;;;2.83;;
24147;SDS011;12309;51.450;-2.624;2023-05-29T13:12:51;6.80;;;2.00;;
24147;SDS011;12309;51.450;-2.624;2023-05-29T13:15:23;9.23;;;2.42;;
24147;SDS011;12309;51.450;-2.624;2023-05-29T13:17:49;6.47;;;2.13;;
24147;SDS011;12309;51.450;-2.624;2023-05-29T13:20:15;6.03;;;2.22;;
24147;SDS011;12309;51.450;-2.624;2023-05-29T13:22:42;8.60;;;2.30;;
24147;SDS011;12309;51.450;-2.624;2023-05-29T13:25:09;5.65;;;2.25;;
24147;SDS011;12309;51.450;-2.624;2023-05-29T13:27:37;10.70;;;2.45;;
24147;SDS011;12309;51.450;-2.624;2023-05-29T13:30:10;8.85;;;1.90;;
24147;SDS011;12309;51.450;-2.624;2023-05-29T13:32:36;11.55;;;2.10;;
24147;SDS011;12309;51.450;-2.624;2023-05-29T13:35:02;6.85;;;2.40;;
24147;SDS011;12309;51.450;-2.624;2023-05-29T13:37:28;9.07;;;2.20;;
24147;SDS011;12309;51.450;-2.624;2023-05-29T13:39:54;7.80;;;2.20;;
24147;SDS011;12309;51.450;-2.624;2023-05-29T13:42:20;6.85;;;2.40;;
24147;SDS011;12309;51.450;-2.624;2023-05-29T13:44:47;9.15;;;2.42;;
24147;SDS011;12309;51.450;-2.624;2023-05-29T13:47:13;7.38;;;2.20;;
24147;SDS011;12309;51.450;-2.624;2023-05-29T13:49:39;4.20;;;1.70;;
24147;SDS011;12309;51.450;-2.624;2023-05-29T13:52:05;5.82;;;2.15;;
24147;SDS011;12309;51.450;-2.624;2023-05-29T13:54:31;5.93;;;2.10;;
24147;SDS011;12309;51.450;-2.624;2023-05-29T13:57:01;10.25;;;2.53;;
24147;SDS011;12309;51.450;-2.624;2023-05-29T13:59:28;10.57;;;2.67;;
24147;SDS011;12309;51.450;-2.624;2023-05-29T14:01:57;8.50;;;2.80;;
24147;SDS011;12309;51.450;-2.624;2023-05-29T14:04:23;10.55;;;2.50;;
24147;SDS011;12309;51.450;-2.624;2023-05-29T14:06:49;6.47;;;2.33;;
24147;SDS011;12309;51.450;-2.624;2023-05-29T14:09:15;6.85;;;2.25;;
24147;SDS011;12309;51.450;-2.624;2023-05-29T14:11:41;5.60;;;2.40;;
24147;SDS011;12309;51.450;-2.624;2023-05-29T14:14:07;7.95;;;2.55;;
24147;SDS011;12309;51.450;-2.624;2023-05-29T14:16:33;7.20;;;2.17;;
24147;SDS011;12309;51.450;-2.624;2023-05-29T14:18:59;6.55;;;2.33;;
24147;SDS011;12309;51.450;-2.624;2023-05-29T14:21:25;5.25;;;2.20;;
24147;SDS011;12309;51.450;-2.624;2023-05-29T14:23:50;8.07;;;2.20;;
24147;SDS011;12309;51.450;-2.624;2023-05-29T14:26:16;7.05;;;2.53;;
24147;SDS011;12309;51.450;-2.624;2023-05-29T14:28:42;7.38;;;2.50;;
24147;SDS011;12309;51.450;-2.624;2023-05-29T14:31:09;5.40;;;2.10;;
24147;SDS011;12309;51.450;-2.624;2023-05-29T14:33:34;7.88;;;2.30;;
24147;SDS011;12309;51.450;-2.624;2023-05-29T14:36:01;9.93;;;2.15;;
24147;SDS011;12309;51.450;-2.624;2023-05-29T14:38:27;6.35;;;2.38;;
24147;SDS011;12309;51.450;-2.624;2023-05-29T14:40:53;7.95;;;2.30;;
24147;SDS011;12309;51.450;-2.624;2023-05-29T14:43:18;6.20;;;2.30;;
24147;SDS011;12309;51.450;-2.624;2023-05-29T14:45:44;7.95;;;2.13;;
24147;SDS011;12309;51.450;-2.624;2023-05-29T14:48:10;6.10;;;2.08;;
24147;SDS011;12309;51.450;-2.624;2023-05-29T14:50:36;8.63;;;2.75;;
24147;SDS011;12309;51.450;-2.624;2023-05-29T14:53:02;6.65;;;2.38;;